Aviation Digital Data Service (ADDS)

Output produced by METARs form (0906 UTC 31 October 2014)
found at http://aviationweather.gov/adds/metars/
 
KBDR 310831Z 3109/0106 01007KT P6SM SCT050 
     TEMPO 3109/3113 BKN050 
     FM311400 05007KT P6SM BKN040 
     FM311800 08008KT P6SM BKN035 
     TEMPO 3122/0102 -RA 
     FM010200 04012KT P6SM -RA OVC025